createdAt,value
2019-03-04T00:03:22.470Z,10.93
2019-03-04T00:07:29.367Z,10.88
2019-03-04T00:11:36.388Z,10.79
2019-03-04T00:15:43.616Z,10.82
2019-03-04T00:19:50.509Z,10.79
2019-03-04T00:23:57.367Z,10.82
2019-03-04T00:28:04.319Z,10.81
2019-03-04T00:32:11.257Z,10.86
2019-03-04T00:36:18.109Z,10.85
2019-03-04T00:40:24.974Z,10.92
2019-03-04T00:44:31.861Z,10.93
2019-03-04T00:48:38.964Z,10.93
2019-03-04T00:52:45.820Z,10.99
2019-03-04T00:56:52.625Z,11.00
2019-03-04T01:00:59.489Z,11.06
2019-03-04T01:05:06.894Z,11.12
2019-03-04T01:09:15.622Z,11.20
2019-03-04T01:13:24.401Z,11.19
2019-03-04T01:17:31.276Z,11.18
2019-03-04T01:21:38.141Z,11.18
2019-03-04T01:25:45.001Z,11.28
2019-03-04T01:29:51.873Z,11.28
2019-03-04T01:33:58.702Z,11.31
2019-03-04T01:38:05.696Z,11.34
2019-03-04T01:42:12.714Z,11.38
2019-03-04T01:46:19.665Z,11.43
2019-03-04T01:50:26.499Z,11.44
2019-03-04T01:54:33.344Z,11.49
2019-03-04T01:58:40.151Z,11.58
2019-03-04T02:02:47.554Z,11.64
2019-03-04T02:06:54.403Z,11.77
2019-03-04T02:11:01.224Z,11.93
2019-03-04T02:15:09.663Z,12.05
2019-03-04T02:19:16.531Z,12.22
2019-03-04T02:23:23.918Z,12.34
2019-03-04T02:27:30.733Z,12.45
2019-03-04T02:31:37.547Z,12.52
2019-03-04T02:35:44.604Z,12.62
2019-03-04T02:39:51.445Z,12.63
2019-03-04T02:43:58.322Z,12.69
2019-03-04T02:48:05.140Z,12.72
2019-03-04T02:52:11.943Z,12.73
2019-03-04T02:56:18.862Z,12.71
2019-03-04T03:00:25.806Z,12.65
2019-03-04T03:04:32.697Z,12.60
2019-03-04T03:08:39.544Z,12.66
2019-03-04T03:12:47.427Z,12.61
2019-03-04T03:16:54.403Z,12.68
2019-03-04T03:21:01.262Z,12.66
2019-03-04T03:25:08.767Z,12.62
2019-03-04T03:29:15.686Z,12.58
2019-03-04T03:33:22.509Z,12.62
2019-03-04T03:37:29.361Z,12.55
2019-03-04T03:41:37.994Z,12.50
2019-03-04T03:45:44.866Z,12.55
2019-03-04T03:49:52.755Z,12.51
2019-03-04T03:53:59.548Z,12.48
2019-03-04T03:58:06.377Z,12.50
2019-03-04T04:02:13.265Z,12.40
2019-03-04T04:06:20.157Z,12.37
2019-03-04T04:10:27.087Z,12.35
2019-03-04T04:14:33.869Z,12.31
2019-03-04T04:18:40.743Z,12.33
2019-03-04T04:22:47.652Z,12.31
2019-03-04T04:26:54.496Z,12.27
2019-03-04T04:31:01.329Z,12.25
2019-03-04T04:35:08.518Z,12.28
2019-03-04T04:39:15.354Z,12.25
2019-03-04T04:43:22.166Z,12.25
2019-03-04T04:47:29.079Z,12.18
2019-03-04T04:51:35.899Z,12.17
2019-03-04T04:55:42.723Z,12.14
2019-03-04T04:59:49.572Z,12.13
2019-03-04T05:03:56.492Z,12.09
2019-03-04T05:08:03.351Z,12.09
2019-03-04T05:12:10.197Z,12.15
2019-03-04T05:16:17.001Z,12.07
2019-03-04T05:20:23.982Z,12.07
2019-03-04T05:24:30.968Z,12.06
2019-03-04T05:28:38.972Z,12.07
2019-03-04T05:32:45.800Z,12.07
2019-03-04T05:36:52.667Z,12.07
2019-03-04T05:40:59.532Z,12.18
2019-03-04T05:45:08.087Z,12.09
2019-03-04T05:49:25.612Z,12.08
2019-03-04T05:53:32.524Z,12.10
2019-03-04T05:57:39.559Z,12.08
2019-03-04T06:02:05.389Z,12.10
2019-03-04T06:06:12.264Z,12.19
2019-03-04T06:10:19.171Z,12.17
2019-03-04T06:14:26.490Z,12.16
2019-03-04T06:18:33.373Z,12.19
2019-03-04T06:22:40.243Z,12.18
2019-03-04T06:26:47.107Z,12.18
2019-03-04T06:30:53.963Z,12.23
2019-03-04T06:35:00.872Z,12.20
2019-03-04T06:39:09.631Z,12.24
2019-03-04T06:43:16.693Z,12.11
2019-03-04T06:47:23.973Z,11.99
2019-03-04T06:51:43.449Z,11.94
2019-03-04T06:56:07.510Z,11.75
2019-03-04T07:00:53.341Z,11.71
2019-03-04T07:05:53.164Z,11.73
2019-03-04T07:10:00.003Z,11.72
2019-03-04T07:14:07.466Z,11.74
2019-03-04T07:18:14.384Z,11.76
2019-03-04T07:22:21.240Z,11.76
2019-03-04T07:26:28.085Z,11.77
2019-03-04T07:30:34.892Z,11.76
2019-03-04T07:34:41.792Z,11.85
2019-03-04T07:38:58.480Z,11.93
2019-03-04T07:43:05.486Z,12.04
2019-03-04T07:47:12.489Z,12.10
2019-03-04T07:51:26.322Z,12.21
2019-03-04T07:55:33.237Z,12.28
2019-03-04T07:59:40.079Z,12.38
2019-03-04T08:03:52.161Z,12.42
2019-03-04T08:07:59.013Z,12.50
2019-03-04T08:13:02.222Z,12.55
2019-03-04T08:17:09.179Z,12.65
2019-03-04T08:21:17.193Z,12.74
2019-03-04T08:25:24.068Z,12.78
2019-03-04T08:29:33.494Z,12.81
2019-03-04T08:33:40.394Z,12.86
2019-03-04T08:37:47.360Z,12.89
2019-03-04T08:41:54.412Z,12.92
2019-03-04T08:46:01.662Z,12.95
2019-03-04T08:50:10.104Z,12.96
2019-03-04T08:54:18.040Z,12.85
2019-03-04T08:58:24.902Z,12.01
2019-03-04T09:02:31.792Z,11.79
2019-03-04T09:06:38.817Z,11.28
2019-03-04T09:10:45.730Z,11.07
2019-03-04T09:14:52.749Z,11.15
2019-03-04T09:18:59.822Z,11.35
2019-03-04T09:23:06.813Z,11.42
2019-03-04T09:27:13.794Z,11.52
2019-03-04T09:31:20.887Z,11.56
2019-03-04T09:35:27.988Z,11.58
2019-03-04T09:39:35.064Z,11.61
2019-03-04T09:43:42.319Z,11.59
2019-03-04T09:47:49.243Z,12.27
2019-03-04T09:51:56.663Z,12.33
2019-03-04T09:56:03.556Z,12.10
2019-03-04T10:00:38.713Z,12.23
2019-03-04T10:05:36.282Z,12.22
2019-03-04T10:10:29.969Z,12.42
2019-03-04T10:15:44.030Z,12.50
2019-03-04T10:20:36.680Z,12.21
2019-03-04T10:25:59.712Z,12.25
2019-03-04T10:31:07.292Z,12.37
2019-03-04T10:36:01.576Z,12.45
2019-03-04T10:41:08.230Z,12.56
2019-03-04T10:45:48.315Z,12.11
2019-03-04T10:49:55.204Z,11.92
2019-03-04T10:54:03.180Z,11.85
2019-03-04T10:58:10.331Z,12.01
2019-03-04T11:02:17.234Z,11.99
2019-03-04T11:06:24.312Z,11.77
2019-03-04T11:10:31.548Z,11.52
2019-03-04T11:14:38.678Z,11.29
2019-03-04T11:18:45.647Z,11.25
2019-03-04T11:22:52.621Z,10.86
2019-03-04T11:26:59.548Z,10.70
2019-03-04T11:31:06.498Z,10.57
2019-03-04T11:35:13.701Z,11.05
2019-03-04T11:39:47.782Z,11.82
2019-03-04T11:43:54.599Z,12.47
2019-03-04T11:48:01.469Z,12.13
2019-03-04T11:52:08.445Z,12.12
2019-03-04T11:56:15.316Z,12.78
2019-03-04T12:00:31.754Z,12.11
2019-03-04T12:04:40.024Z,12.10
2019-03-04T12:08:46.892Z,11.49
2019-03-04T12:12:53.754Z,11.66
2019-03-04T12:17:01.726Z,12.17
2019-03-04T12:21:09.564Z,11.92
2019-03-04T12:25:16.709Z,13.60
2019-03-04T12:29:23.540Z,12.82
2019-03-04T12:33:30.479Z,13.05
2019-03-04T12:37:37.305Z,13.23
2019-03-04T12:41:44.169Z,13.26
2019-03-04T12:45:53.220Z,13.07
2019-03-04T12:50:00.330Z,12.09
2019-03-04T12:54:10.635Z,11.69
2019-03-04T12:58:17.538Z,11.18
2019-03-04T13:02:25.570Z,10.95
2019-03-04T13:06:32.582Z,10.91
2019-03-04T13:10:39.546Z,10.76
2019-03-04T13:14:46.671Z,10.69
2019-03-04T13:18:53.732Z,10.60
2019-03-04T13:23:00.951Z,9.97
2019-03-04T13:27:08.090Z,8.93
2019-03-04T13:31:15.270Z,8.78
2019-03-04T13:35:24.871Z,8.67
2019-03-04T13:39:31.837Z,8.74
2019-03-04T13:43:38.828Z,8.68
2019-03-04T13:47:45.824Z,8.83
2019-03-04T13:51:52.780Z,8.92
2019-03-04T13:55:59.722Z,8.90
2019-03-04T14:00:11.116Z,8.91
2019-03-04T14:04:18.030Z,9.00
2019-03-04T14:08:24.846Z,9.03
2019-03-04T14:12:31.701Z,8.89
2019-03-04T14:16:38.536Z,8.98
2019-03-04T14:20:45.436Z,8.79
2019-03-04T14:24:52.572Z,8.83
2019-03-04T14:28:59.359Z,8.84
2019-03-04T14:33:06.309Z,8.92
2019-03-04T14:37:34.225Z,9.00
2019-03-04T14:41:41.215Z,9.10
2019-03-04T14:45:47.996Z,9.10
2019-03-04T14:49:55.012Z,9.23
2019-03-04T14:54:01.895Z,9.17
2019-03-04T14:58:08.699Z,9.31
2019-03-04T15:02:15.687Z,9.38
2019-03-04T15:06:22.795Z,9.32
2019-03-04T15:10:30.049Z,9.16
2019-03-04T15:14:37.011Z,9.06
2019-03-04T15:18:44.016Z,8.49
2019-03-04T15:22:51.166Z,8.09
2019-03-04T15:26:58.083Z,8.10
2019-03-04T15:31:05.126Z,7.65
2019-03-04T15:35:12.115Z,7.58
2019-03-04T15:39:22.865Z,7.33
2019-03-04T15:43:27.646Z,7.51
2019-03-04T15:47:36.607Z,7.53
2019-03-04T15:51:43.016Z,7.51
2019-03-04T15:55:49.919Z,7.52
2019-03-04T15:59:56.839Z,7.62
2019-03-04T16:04:04.096Z,7.68
2019-03-04T16:08:11.028Z,7.85
2019-03-04T16:12:20.852Z,7.68
2019-03-04T16:16:27.761Z,7.72
2019-03-04T16:20:35.701Z,7.80
2019-03-04T16:24:42.618Z,7.70
2019-03-04T16:28:49.640Z,7.76
2019-03-04T16:32:56.614Z,7.78
2019-03-04T16:37:08.217Z,7.84
2019-03-04T16:41:15.137Z,7.69
2019-03-04T16:45:22.001Z,7.58
2019-03-04T16:49:28.894Z,7.52
2019-03-04T16:53:35.741Z,7.53
2019-03-04T16:57:43.829Z,7.37
2019-03-04T17:01:50.881Z,7.50
2019-03-04T17:05:57.793Z,7.43
2019-03-04T17:10:06.248Z,7.37
2019-03-04T17:14:13.245Z,7.32
2019-03-04T17:18:21.129Z,7.35
2019-03-04T17:22:30.471Z,7.30
2019-03-04T17:26:37.081Z,7.29
2019-03-04T17:30:43.918Z,7.17
2019-03-04T17:34:50.979Z,7.12
2019-03-04T17:38:57.986Z,7.09
2019-03-04T17:43:05.026Z,7.13
2019-03-04T17:47:13.157Z,7.15
2019-03-04T17:51:20.204Z,7.16
2019-03-04T17:55:27.187Z,7.18
2019-03-04T17:59:34.105Z,7.12
2019-03-04T18:03:40.963Z,7.23
2019-03-04T18:07:48.054Z,7.16
2019-03-04T18:11:54.945Z,7.08
2019-03-04T18:16:01.797Z,7.00
2019-03-04T18:20:10.817Z,7.03
2019-03-04T18:24:18.997Z,7.09
2019-03-04T18:29:18.273Z,7.00
2019-03-04T18:34:19.614Z,6.97
2019-03-04T18:39:27.366Z,6.96
2019-03-04T18:43:59.329Z,7.00
2019-03-04T18:48:57.348Z,6.97
2019-03-04T18:53:07.039Z,7.01
2019-03-04T18:57:14.178Z,6.95
2019-03-04T19:01:21.362Z,6.87
2019-03-04T19:05:28.470Z,6.85
2019-03-04T19:09:35.794Z,6.88
2019-03-04T19:13:45.212Z,6.89
2019-03-04T19:17:52.243Z,6.83
2019-03-04T19:21:59.225Z,6.80
2019-03-04T19:26:06.710Z,6.76
2019-03-04T19:30:14.392Z,6.78
2019-03-04T19:34:21.860Z,6.73
2019-03-04T19:38:28.848Z,6.64
2019-03-04T19:42:35.972Z,6.57
2019-03-04T19:46:42.991Z,6.60
2019-03-04T19:50:50.290Z,6.62
2019-03-04T19:54:57.425Z,6.56
2019-03-04T19:59:04.635Z,6.68
2019-03-04T20:03:11.701Z,6.64
2019-03-04T20:07:18.742Z,6.62
2019-03-04T20:11:25.974Z,6.52
2019-03-04T20:15:33.072Z,6.60
2019-03-04T20:19:40.123Z,6.49
2019-03-04T20:23:47.085Z,6.57
2019-03-04T20:27:54.066Z,6.53
2019-03-04T20:32:01.173Z,6.49
2019-03-04T20:36:09.145Z,6.52
2019-03-04T20:40:18.084Z,6.46
2019-03-04T20:44:25.102Z,6.41
2019-03-04T20:48:32.113Z,6.41
2019-03-04T20:52:41.556Z,6.30
2019-03-04T20:56:47.659Z,6.31
2019-03-04T21:00:55.257Z,6.37
2019-03-04T21:05:02.092Z,6.36
2019-03-04T21:09:11.126Z,6.33
2019-03-04T21:13:35.147Z,6.37
2019-03-04T21:17:34.438Z,6.42
2019-03-04T21:21:41.521Z,6.33
2019-03-04T21:26:03.014Z,6.29
2019-03-04T21:31:00.422Z,6.30
2019-03-04T21:36:18.551Z,6.32
2019-03-04T21:40:36.449Z,6.34
2019-03-04T21:46:01.681Z,6.27
2019-03-04T21:50:12.418Z,6.31
2019-03-04T21:54:19.736Z,6.44
2019-03-04T21:58:28.253Z,6.42
2019-03-04T22:03:08.222Z,6.40
2019-03-04T22:07:16.634Z,6.38
2019-03-04T22:11:25.143Z,6.39
2019-03-04T22:15:32.109Z,6.41
2019-03-04T22:19:41.550Z,6.42
2019-03-04T22:23:48.566Z,6.38
2019-03-04T22:27:56.397Z,6.46
2019-03-04T22:32:03.406Z,6.50
2019-03-04T22:36:14.246Z,6.50
2019-03-04T22:40:22.014Z,6.59
2019-03-04T22:44:31.629Z,6.69
2019-03-04T22:48:42.151Z,6.63
2019-03-04T22:52:49.257Z,6.71
2019-03-04T22:56:57.894Z,6.72
2019-03-04T23:01:36.683Z,6.67
2019-03-04T23:05:43.582Z,6.65
2019-03-04T23:10:35.282Z,6.69
2019-03-04T23:14:53.460Z,6.67
2019-03-04T23:19:00.462Z,6.75
2019-03-04T23:23:07.327Z,6.72
2019-03-04T23:27:14.353Z,6.74
2019-03-04T23:31:21.409Z,6.73
2019-03-04T23:35:28.385Z,6.85
2019-03-04T23:39:35.271Z,6.89
2019-03-04T23:43:42.623Z,6.78
2019-03-04T23:47:49.524Z,6.77
2019-03-04T23:51:56.345Z,6.66
2019-03-04T23:56:03.202Z,6.66
